Time;durP1;ratioP1;P1;durP2;ratioP2;P2;SDS_P1;SDS_P2;PMS_P1;PMS_P2;Temp;Humidity;BMP_temperature;BMP_pressure;BME280_temperature;BME280_humidity;BME280_pressure;Samples;Min_cycle;Max_cycle;Signal;HPM_P1;HPM_P2
2023/07/27 00:00:19;;;;;;;2.00;1.80;;;16.30;99.90;;;;;;5010266;28;20259;-76
2023/07/27 00:02:45;;;;;;;5.20;2.17;;;16.30;99.90;;;;;;5010816;28;20287;-76
2023/07/27 00:05:12;;;;;;;1.50;1.33;;;16.20;99.90;;;;;;5011069;28;20863;-76
2023/07/27 00:07:38;;;;;;;3.10;1.98;;;16.20;99.90;;;;;;5009359;28;20185;-76
2023/07/27 00:10:04;;;;;;;2.08;1.70;;;16.10;99.90;;;;;;5009190;28;20208;-76
2023/07/27 00:12:30;;;;;;;3.78;1.67;;;16.10;99.90;;;;;;5008998;28;20213;-77
2023/07/27 00:14:56;;;;;;;2.03;1.60;;;16.10;99.90;;;;;;5007214;28;20275;-73
2023/07/27 00:17:21;;;;;;;2.13;1.77;;;16.00;99.90;;;;;;5004672;28;20212;-76
2023/07/27 00:19:47;;;;;;;2.03;1.60;;;15.90;99.90;;;;;;5011654;28;20204;-75
2023/07/27 00:22:12;;;;;;;5.07;1.90;;;15.90;99.90;;;;;;5008794;28;20195;-76
2023/07/27 00:24:38;;;;;;;3.00;1.60;;;15.80;99.90;;;;;;5006227;28;20583;-76
2023/07/27 00:27:04;;;;;;;2.00;1.80;;;15.80;99.90;;;;;;5010008;28;20672;-76
2023/07/27 00:29:29;;;;;;;3.97;1.80;;;15.80;99.90;;;;;;5021185;28;20224;-76
2023/07/27 00:31:55;;;;;;;2.95;2.22;;;15.80;99.90;;;;;;5008819;28;20180;-76
2023/07/27 00:34:21;;;;;;;3.13;2.13;;;15.70;99.90;;;;;;5016798;28;20200;-76
2023/07/27 00:36:46;;;;;;;3.50;2.13;;;15.70;99.90;;;;;;5008359;28;20201;-76
2023/07/27 00:39:12;;;;;;;2.45;1.75;;;15.70;99.90;;;;;;5008431;28;20688;-76
2023/07/27 00:41:42;;;;;;;2.05;1.58;;;15.70;99.90;;;;;;5008937;28;20209;-76
2023/07/27 00:44:08;;;;;;;2.40;2.10;;;15.70;99.90;;;;;;5010069;28;20213;-77
2023/07/27 00:46:36;;;;;;;1.85;1.73;;;15.70;99.90;;;;;;5005774;28;20174;-76
2023/07/27 00:49:03;;;;;;;2.55;1.75;;;15.60;99.90;;;;;;5005699;28;20757;-76
2023/07/27 00:51:42;;;;;;;2.53;1.95;;;15.60;99.90;;;;;;5021726;28;20575;-76
2023/07/27 00:54:10;;;;;;;4.47;1.75;;;15.60;99.90;;;;;;5005699;28;20233;-76
2023/07/27 00:56:37;;;;;;;4.88;1.80;;;15.60;99.90;;;;;;5008712;28;20212;-76
2023/07/27 00:59:04;;;;;;;2.13;1.60;;;15.60;99.90;;;;;;4997445;28;20662;-76
2023/07/27 01:01:30;;;;;;;2.72;2.20;;;15.50;99.90;;;;;;5008984;28;20201;-76
2023/07/27 01:03:56;;;;;;;3.65;1.95;;;15.50;99.90;;;;;;5010521;28;20581;-76
2023/07/27 01:06:23;;;;;;;2.25;1.75;;;15.50;99.90;;;;;;5008631;28;20239;-76
2023/07/27 01:08:50;;;;;;;5.07;2.42;;;15.40;99.90;;;;;;5010167;28;20229;-76
2023/07/27 01:11:36;;;;;;;2.72;2.13;;;15.40;99.90;;;;;;5009947;28;20283;-76
2023/07/27 01:14:19;;;;;;;2.40;1.88;;;15.40;99.90;;;;;;5010200;28;20165;-76
2023/07/27 01:16:51;;;;;;;2.05;1.77;;;15.40;99.90;;;;;;5008405;28;20181;-76
2023/07/27 01:19:46;;;;;;;2.65;1.70;;;15.40;99.90;;;;;;5010148;28;20721;-76
2023/07/27 01:22:53;;;;;;;2.35;1.88;;;15.40;99.90;;;;;;4998896;28;20225;-76
2023/07/27 01:25:51;;;;;;;2.85;2.13;;;15.30;99.90;;;;;;5008697;28;20213;-75
2023/07/27 01:28:38;;;;;;;2.72;2.17;;;15.30;99.90;;;;;;5024180;28;20311;-76
2023/07/27 01:31:19;;;;;;;4.13;2.50;;;15.30;99.90;;;;;;5022246;28;20211;-76
2023/07/27 01:33:49;;;;;;;2.75;2.20;;;15.30;99.90;;;;;;5009597;28;20205;-76
2023/07/27 01:36:23;;;;;;;4.38;2.38;;;15.30;99.90;;;;;;5007872;28;20208;-76
2023/07/27 01:38:51;;;;;;;3.58;2.42;;;15.30;99.90;;;;;;5006263;28;20294;-76
2023/07/27 01:41:17;;;;;;;2.78;2.50;;;15.20;99.90;;;;;;5007859;28;20278;-76
2023/07/27 01:43:44;;;;;;;3.38;2.47;;;15.10;99.90;;;;;;5006235;28;20881;-76
2023/07/27 01:46:12;;;;;;;2.60;2.08;;;15.10;99.90;;;;;;5009652;28;20767;-76
2023/07/27 01:48:41;;;;;;;7.35;2.60;;;15.00;99.90;;;;;;5008165;28;20212;-75
2023/07/27 01:51:09;;;;;;;2.53;2.22;;;15.10;99.90;;;;;;5045872;23;20215;-74
2023/07/27 01:53:36;;;;;;;6.70;2.60;;;15.10;99.90;;;;;;5049326;28;20294;-75
2023/07/27 01:56:05;;;;;;;4.85;2.95;;;15.10;99.90;;;;;;5049186;28;20180;-74
2023/07/27 01:58:31;;;;;;;3.25;2.38;;;15.10;99.90;;;;;;5049702;28;20175;-74
2023/07/27 02:00:58;;;;;;;2.42;2.13;;;15.10;99.90;;;;;;5048156;28;20594;-75
2023/07/27 02:03:25;;;;;;;2.70;2.30;;;15.10;99.90;;;;;;5041319;28;20216;-74
2023/07/27 02:05:51;;;;;;;3.58;2.15;;;15.10;99.90;;;;;;5047891;28;20227;-74
2023/07/27 02:08:17;;;;;;;3.95;2.25;;;15.00;99.90;;;;;;5042200;28;20246;-74
2023/07/27 02:10:47;;;;;;;3.17;2.20;;;15.00;99.90;;;;;;5042500;28;20203;-75
2023/07/27 02:13:26;;;;;;;3.60;2.33;;;15.10;99.90;;;;;;5040238;28;20279;-74
2023/07/27 02:16:04;;;;;;;3.22;2.40;;;15.10;99.90;;;;;;5055716;28;20218;-75
2023/07/27 02:18:31;;;;;;;4.10;2.30;;;15.10;99.90;;;;;;5044363;28;20211;-75
2023/07/27 02:20:57;;;;;;;3.63;2.40;;;15.00;99.90;;;;;;5044957;28;20211;-74
2023/07/27 02:23:23;;;;;;;4.05;2.75;;;15.00;99.90;;;;;;5046919;28;20717;-75
2023/07/27 02:25:49;;;;;;;3.72;2.60;;;15.00;99.90;;;;;;5042948;28;20188;-75
2023/07/27 02:28:15;;;;;;;4.00;2.88;;;15.00;99.90;;;;;;5042564;28;20206;-75
2023/07/27 02:30:40;;;;;;;3.55;2.38;;;15.00;99.90;;;;;;5047655;28;20252;-75
2023/07/27 02:33:06;;;;;;;4.43;2.30;;;15.00;99.90;;;;;;5048726;28;20635;-74
2023/07/27 02:35:32;;;;;;;2.70;2.35;;;15.00;99.90;;;;;;5043899;28;20207;-74
2023/07/27 02:37:57;;;;;;;3.28;2.72;;;14.90;99.90;;;;;;5048317;28;20171;-75
2023/07/27 02:40:23;;;;;;;2.53;2.33;;;14.80;99.90;;;;;;5042137;28;20234;-76
2023/07/27 02:42:49;;;;;;;3.25;2.75;;;14.80;99.90;;;;;;5043543;28;20710;-75
2023/07/27 02:45:14;;;;;;;3.33;2.70;;;14.80;99.90;;;;;;5048043;28;20204;-74
2023/07/27 02:47:40;;;;;;;4.00;2.67;;;14.60;99.90;;;;;;5045342;28;20738;-75
2023/07/27 02:50:06;;;;;;;3.67;2.58;;;14.60;99.90;;;;;;5046631;28;20257;-74
2023/07/27 02:52:32;;;;;;;3.75;2.60;;;14.40;99.90;;;;;;5039002;28;20685;-75
2023/07/27 02:54:57;;;;;;;3.38;2.90;;;14.50;99.90;;;;;;5047003;28;20204;-74
2023/07/27 02:57:23;;;;;;;3.53;3.00;;;14.40;99.90;;;;;;5044460;28;20200;-74
2023/07/27 02:59:49;;;;;;;4.10;2.80;;;14.50;99.90;;;;;;5048115;28;20668;-74
2023/07/27 03:02:15;;;;;;;4.60;3.05;;;14.50;99.90;;;;;;5047558;28;20207;-74
2023/07/27 03:04:40;;;;;;;3.40;2.83;;;14.40;99.90;;;;;;5048480;28;20171;-76
2023/07/27 03:07:06;;;;;;;4.03;2.83;;;14.40;99.90;;;;;;5046074;28;20206;-75
2023/07/27 03:09:33;;;;;;;2.90;2.60;;;14.40;99.90;;;;;;5047310;28;20211;-75
2023/07/27 03:11:58;;;;;;;3.45;2.55;;;14.50;99.90;;;;;;5048181;28;20215;-75
2023/07/27 03:14:24;;;;;;;3.17;2.80;;;14.50;99.90;;;;;;5054108;28;20642;-75
2023/07/27 03:16:50;;;;;;;3.50;3.00;;;14.60;99.90;;;;;;5046693;28;20176;-75
2023/07/27 03:19:15;;;;;;;3.55;3.25;;;14.50;99.90;;;;;;5047234;28;20168;-75
2023/07/27 03:21:41;;;;;;;6.85;3.47;;;14.50;99.90;;;;;;5054266;28;20701;-76
2023/07/27 03:24:07;;;;;;;4.65;3.17;;;14.50;99.90;;;;;;5053082;28;20590;-74
2023/07/27 03:26:33;;;;;;;3.55;3.00;;;14.50;99.90;;;;;;5047736;28;20212;-75
2023/07/27 03:28:58;;;;;;;5.50;3.53;;;14.50;99.90;;;;;;5053107;28;20203;-74
2023/07/27 03:31:26;;;;;;;4.15;3.30;;;14.50;99.90;;;;;;5054602;28;20235;-75
2023/07/27 03:33:52;;;;;;;4.68;3.55;;;14.50;99.90;;;;;;5054766;28;20203;-74
2023/07/27 03:36:19;;;;;;;4.13;3.60;;;14.40;99.90;;;;;;5054225;28;20208;-75
2023/07/27 03:38:45;;;;;;;4.60;3.63;;;14.50;99.90;;;;;;5054389;28;20203;-75
2023/07/27 03:41:14;;;;;;;4.15;3.25;;;14.50;99.90;;;;;;5054132;28;20269;-75
2023/07/27 03:43:40;;;;;;;3.60;3.00;;;14.50;99.90;;;;;;5053870;28;20639;-75
2023/07/27 03:46:06;;;;;;;4.60;3.33;;;14.70;99.90;;;;;;5051754;28;20204;-72
2023/07/27 03:48:31;;;;;;;5.25;3.80;;;14.70;99.90;;;;;;5053705;28;20211;-75
2023/07/27 03:51:00;;;;;;;4.32;3.92;;;14.70;99.90;;;;;;5054038;28;20619;-75
2023/07/27 03:53:27;;;;;;;4.25;3.72;;;14.80;99.90;;;;;;5050221;28;20588;-75
2023/07/27 03:55:53;;;;;;;3.95;3.33;;;15.50;99.90;;;;;;5054597;28;20171;-75
2023/07/27 03:58:18;;;;;;;4.50;3.60;;;16.00;99.90;;;;;;5052764;28;20265;-73
2023/07/27 04:00:44;;;;;;;5.30;3.47;;;16.30;99.90;;;;;;5053889;28;20211;-74
2023/07/27 04:03:09;;;;;;;4.95;3.80;;;16.60;99.90;;;;;;5051214;28;20681;-75
2023/07/27 04:05:35;;;;;;;5.20;3.25;;;17.60;99.90;;;;;;5048713;28;20230;-74
2023/07/27 04:08:01;;;;;;;3.22;2.92;;;18.50;99.90;;;;;;5052075;28;20713;-75
2023/07/27 04:10:29;;;;;;;3.10;2.80;;;19.50;99.90;;;;;;5051756;28;20195;-75
2023/07/27 04:12:54;;;;;;;3.10;2.47;;;20.20;99.90;;;;;;5047868;28;20223;-75
2023/07/27 04:15:20;;;;;;;3.30;2.95;;;20.50;99.90;;;;;;5051991;28;20724;-76
2023/07/27 04:17:46;;;;;;;3.10;2.80;;;20.70;99.90;;;;;;5053283;28;20207;-75
2023/07/27 04:20:11;;;;;;;4.50;3.33;;;21.60;99.90;;;;;;5052822;28;20208;-74
2023/07/27 04:22:37;;;;;;;3.58;2.78;;;22.10;99.90;;;;;;5054080;28;20546;-75
2023/07/27 04:25:03;;;;;;;4.18;3.58;;;22.50;99.90;;;;;;5049009;28;20203;-76
2023/07/27 04:27:28;;;;;;;3.40;2.53;;;22.80;99.90;;;;;;5045918;28;20296;-75
2023/07/27 04:29:54;;;;;;;4.10;2.70;;;23.10;99.90;;;;;;5040386;28;20219;-76
2023/07/27 04:32:20;;;;;;;4.78;2.72;;;23.80;99.90;;;;;;5048856;28;20215;-73
2023/07/27 04:34:46;;;;;;;4.55;2.90;;;23.90;99.90;;;;;;5047051;28;20587;-75
2023/07/27 04:37:12;;;;;;;4.93;2.83;;;24.40;99.90;;;;;;5044500;28;20219;-75
2023/07/27 04:39:37;;;;;;;3.65;3.00;;;24.70;99.90;;;;;;5045104;28;20208;-75
2023/07/27 04:42:03;;;;;;;4.80;2.97;;;24.50;99.90;;;;;;5048823;28;20204;-75
2023/07/27 04:44:29;;;;;;;5.00;4.40;;;24.30;99.90;;;;;;5045494;28;20234;-75
2023/07/27 04:46:54;;;;;;;3.75;3.38;;;23.70;99.90;;;;;;5045639;28;20262;-75
2023/07/27 04:49:20;;;;;;;4.55;2.97;;;23.70;99.90;;;;;;5049065;28;20693;-75
2023/07/27 04:51:45;;;;;;;4.90;3.78;;;24.50;99.90;;;;;;5044490;28;20220;-75
2023/07/27 04:54:11;;;;;;;5.25;2.95;;;25.40;99.90;;;;;;5047767;28;20200;-75
2023/07/27 04:56:37;;;;;;;4.28;3.67;;;25.90;99.90;;;;;;5047585;28;20219;-75
2023/07/27 04:59:02;;;;;;;3.30;2.97;;;26.20;99.90;;;;;;5048194;28;20233;-75
2023/07/27 05:01:28;;;;;;;4.00;2.60;;;25.90;99.90;;;;;;5059398;28;20231;-75
2023/07/27 05:03:53;;;;;;;3.33;2.70;;;25.40;99.90;;;;;;5050166;28;20208;-75
2023/07/27 05:06:19;;;;;;;5.75;3.70;;;24.50;99.90;;;;;;5046394;28;20705;-75
2023/07/27 05:08:45;;;;;;;3.10;2.67;;;24.40;99.90;;;;;;5042383;28;20656;-75
2023/07/27 05:11:10;;;;;;;4.72;3.80;;;24.60;99.90;;;;;;5042600;28;20211;-74
2023/07/27 05:13:36;;;;;;;4.75;3.08;;;25.50;99.90;;;;;;5045446;28;20205;-75
2023/07/27 05:16:02;;;;;;;3.22;2.67;;;24.10;99.90;;;;;;5043642;28;20212;-74
2023/07/27 05:18:28;;;;;;;3.72;2.50;;;23.50;99.90;;;;;;5042446;28;20261;-75
2023/07/27 05:20:54;;;;;;;2.72;2.53;;;23.40;99.90;;;;;;5043317;28;20212;-75
2023/07/27 05:23:20;;;;;;;4.93;2.60;;;23.60;99.90;;;;;;5049825;28;20227;-75
2023/07/27 05:25:47;;;;;;;3.30;2.63;;;23.60;99.90;;;;;;5044806;28;20181;-75
2023/07/27 05:28:13;;;;;;;3.20;2.10;;;24.20;99.90;;;;;;5048195;28;20215;-75
2023/07/27 05:30:39;;;;;;;3.85;2.90;;;25.30;99.90;;;;;;5046983;28;20684;-75
2023/07/27 05:33:05;;;;;;;5.20;2.63;;;25.70;99.90;;;;;;5047828;28;20210;-75
2023/07/27 05:35:30;;;;;;;6.40;4.05;;;26.40;99.90;;;;;;5043820;28;20586;-75
2023/07/27 05:37:56;;;;;;;3.90;2.50;;;26.90;99.90;;;;;;5048901;28;20190;-75
2023/07/27 05:40:21;;;;;;;2.83;2.63;;;27.50;99.90;;;;;;5049554;28;20270;-73
2023/07/27 05:42:47;;;;;;;3.63;3.25;;;27.70;99.90;;;;;;5042189;28;20208;-75
2023/07/27 05:45:13;;;;;;;3.35;2.03;;;28.00;99.90;;;;;;5041447;28;20219;-76
2023/07/27 05:47:38;;;;;;;3.42;2.33;;;27.60;99.90;;;;;;5040528;28;21257;-73
2023/07/27 05:50:05;;;;;;;4.03;2.95;;;27.60;99.90;;;;;;5040856;28;20200;-73
2023/07/27 05:52:31;;;;;;;24.13;19.40;;;28.20;99.90;;;;;;5043629;28;20903;-73
2023/07/27 05:54:56;;;;;;;5.85;4.45;;;28.60;99.90;;;;;;5049489;28;20202;-73
2023/07/27 05:57:22;;;;;;;3.67;2.55;;;29.10;99.90;;;;;;5043010;28;20208;-74
2023/07/27 05:59:47;;;;;;;3.78;2.90;;;29.20;99.90;;;;;;5044314;28;20205;-71
2023/07/27 06:02:13;;;;;;;3.53;2.60;;;28.60;99.90;;;;;;5045734;28;20293;-74
2023/07/27 06:04:39;;;;;;;4.28;3.10;;;29.00;99.90;;;;;;5047238;28;20171;-74
2023/07/27 06:07:05;;;;;;;4.18;2.97;;;27.70;99.90;;;;;;5043546;28;20210;-71
2023/07/27 06:09:31;;;;;;;8.63;4.78;;;26.50;99.90;;;;;;5043628;28;20212;-74
2023/07/27 06:11:57;;;;;;;4.25;3.47;;;26.40;99.90;;;;;;5047286;28;20213;-74
2023/07/27 06:14:23;;;;;;;3.63;2.55;;;26.10;99.90;;;;;;5048321;28;20912;-75
2023/07/27 06:16:49;;;;;;;3.45;3.05;;;25.30;99.90;;;;;;5055393;28;20194;-74
2023/07/27 06:19:15;;;;;;;5.07;3.50;;;24.80;99.90;;;;;;5039675;28;20250;-74
2023/07/27 06:21:40;;;;;;;5.10;3.47;;;24.60;99.90;;;;;;5039098;28;20208;-74
2023/07/27 06:24:08;;;;;;;3.75;2.47;;;24.50;99.90;;;;;;5039946;28;20216;-74
2023/07/27 06:26:33;;;;;;;3.25;2.65;;;24.50;99.90;;;;;;5041925;28;20215;-74
2023/07/27 06:28:59;;;;;;;4.30;3.00;;;25.00;99.90;;;;;;5046975;28;20195;-75
2023/07/27 06:31:24;;;;;;;4.50;2.75;;;25.10;99.90;;;;;;5046139;28;20732;-74
2023/07/27 06:33:51;;;;;;;4.40;2.85;;;25.50;99.90;;;;;;5041165;28;20216;-74
2023/07/27 06:36:17;;;;;;;4.65;3.38;;;25.80;99.90;;;;;;5045273;28;20720;-74
2023/07/27 06:38:43;;;;;;;4.35;2.92;;;25.50;99.90;;;;;;5045106;28;20211;-74
2023/07/27 06:41:09;;;;;;;3.63;2.90;;;25.80;99.90;;;;;;5045095;28;20215;-73
2023/07/27 06:43:35;;;;;;;3.63;2.78;;;26.10;99.90;;;;;;5049208;28;20184;-74
2023/07/27 06:46:00;;;;;;;3.95;2.72;;;27.00;99.90;;;;;;5047095;28;20300;-75
2023/07/27 06:48:26;;;;;;;4.07;2.97;;;27.10;99.90;;;;;;5045600;28;20219;-75
2023/07/27 06:50:52;;;;;;;3.03;2.45;;;27.90;99.90;;;;;;5054853;28;20219;-74
2023/07/27 06:53:18;;;;;;;4.80;3.10;;;27.10;99.90;;;;;;5047811;28;20211;-74
2023/07/27 06:55:44;;;;;;;5.00;2.75;;;26.80;99.90;;;;;;5045368;28;20181;-75
2023/07/27 06:58:09;;;;;;;4.07;2.80;;;26.70;99.90;;;;;;5042218;28;20212;-74
2023/07/27 07:00:35;;;;;;;3.78;2.85;;;25.60;99.90;;;;;;5036260;28;20254;-74
2023/07/27 07:03:00;;;;;;;4.53;2.80;;;25.50;99.90;;;;;;5038862;28;20208;-74
2023/07/27 07:05:26;;;;;;;3.80;3.03;;;25.90;99.90;;;;;;5042089;28;20237;-75
2023/07/27 07:07:52;;;;;;;6.35;2.97;;;27.40;99.90;;;;;;5052559;28;20219;-74
2023/07/27 07:10:21;;;;;;;5.28;2.90;;;28.20;99.90;;;;;;5041453;28;20302;-74
2023/07/27 07:12:47;;;;;;;3.42;2.55;;;27.50;99.90;;;;;;5040418;28;20272;-75
2023/07/27 07:15:12;;;;;;;5.63;2.65;;;27.60;99.90;;;;;;5044348;28;20217;-74
2023/07/27 07:17:38;;;;;;;4.50;2.47;;;27.10;99.90;;;;;;5046252;28;20214;-75
2023/07/27 07:20:08;;;;;;;3.22;2.50;;;26.60;99.90;;;;;;5046611;28;20267;-74
2023/07/27 07:22:35;;;;;;;3.40;2.50;;;27.50;99.90;;;;;;5045774;28;20183;-74
2023/07/27 07:25:01;;;;;;;7.50;2.65;;;29.30;99.90;;;;;;5045579;28;20214;-74
2023/07/27 07:27:26;;;;;;;4.55;2.90;;;29.90;99.40;;;;;;5047312;28;20204;-74
2023/07/27 07:29:52;;;;;;;3.42;2.92;;;29.20;98.70;;;;;;5046764;28;20858;-75
2023/07/27 07:32:17;;;;;;;3.75;2.35;;;28.40;99.00;;;;;;5039344;28;20338;-74
2023/07/27 07:34:43;;;;;;;4.40;2.65;;;28.20;99.90;;;;;;5043185;28;20233;-75
2023/07/27 07:37:09;;;;;;;3.72;2.67;;;27.50;99.90;;;;;;5040734;28;20216;-74
2023/07/27 07:39:34;;;;;;;5.15;3.20;;;26.00;99.90;;;;;;5041213;28;20203;-75
2023/07/27 07:42:00;;;;;;;3.08;2.67;;;25.40;99.90;;;;;;5041339;28;20208;-74
2023/07/27 07:44:26;;;;;;;5.97;2.65;;;24.10;99.90;;;;;;5042259;28;20215;-74
2023/07/27 07:46:52;;;;;;;3.47;2.30;;;24.20;99.90;;;;;;5040604;28;20180;-74
2023/07/27 07:49:18;;;;;;;3.78;2.42;;;24.00;99.90;;;;;;5058891;28;20294;-74
2023/07/27 07:51:43;;;;;;;3.40;2.42;;;23.90;99.90;;;;;;5041565;28;20247;-74
2023/07/27 07:54:09;;;;;;;4.53;2.63;;;23.40;99.90;;;;;;5043912;28;20215;-75
2023/07/27 07:56:36;;;;;;;6.18;3.60;;;23.40;99.90;;;;;;5043571;28;20306;-74
2023/07/27 07:59:02;;;;;;;5.75;3.35;;;23.20;99.90;;;;;;5044235;28;20552;-75
2023/07/27 08:01:28;;;;;;;4.47;2.80;;;22.80;99.90;;;;;;5050823;28;20291;-75
2023/07/27 08:03:53;;;;;;;3.97;3.03;;;23.00;99.90;;;;;;5045906;28;20228;-74
2023/07/27 08:06:19;;;;;;;3.92;3.03;;;23.00;99.90;;;;;;5050052;28;20665;-74
2023/07/27 08:08:45;;;;;;;4.85;3.15;;;22.90;99.90;;;;;;5048881;28;20211;-74
2023/07/27 08:11:11;;;;;;;4.43;3.30;;;22.60;99.90;;;;;;5044158;28;20714;-74
2023/07/27 08:13:37;;;;;;;3.58;2.75;;;21.80;99.90;;;;;;5046499;28;20271;-75
2023/07/27 08:16:03;;;;;;;12.10;4.13;;;21.90;99.90;;;;;;5044510;28;20200;-75
2023/07/27 08:18:29;;;;;;;3.65;3.08;;;22.10;99.90;;;;;;5044257;28;20211;-74
2023/07/27 08:21:06;;;;;;;5.85;2.85;;;22.30;99.90;;;;;;5045611;28;20259;-74
2023/07/27 08:23:32;;;;;;;4.45;2.92;;;22.50;99.90;;;;;;5045704;28;20218;-74
2023/07/27 08:26:00;;;;;;;3.97;2.78;;;22.50;99.90;;;;;;5044446;28;20210;-74
2023/07/27 08:28:26;;;;;;;4.53;3.25;;;22.40;99.90;;;;;;5049867;28;20299;-74
2023/07/27 08:30:52;;;;;;;3.22;2.80;;;22.50;99.90;;;;;;5047285;28;20735;-74
2023/07/27 08:33:19;;;;;;;6.40;3.10;;;22.00;99.90;;;;;;5048342;28;20308;-74
2023/07/27 08:35:45;;;;;;;3.80;3.08;;;21.90;99.90;;;;;;5049391;28;20230;-73
2023/07/27 08:38:11;;;;;;;6.03;3.35;;;21.90;99.90;;;;;;5049363;28;20211;-74
2023/07/27 08:40:37;;;;;;;4.68;3.17;;;21.80;99.90;;;;;;5050819;28;20211;-74
2023/07/27 08:43:04;;;;;;;6.40;3.05;;;21.70;99.90;;;;;;5050375;28;20203;-74
2023/07/27 08:45:30;;;;;;;5.53;3.50;;;21.40;99.90;;;;;;5046691;28;20238;-74
2023/07/27 08:47:57;;;;;;;5.50;3.10;;;21.10;99.90;;;;;;5045212;28;20292;-74
2023/07/27 08:50:23;;;;;;;5.45;3.22;;;21.30;99.90;;;;;;5046922;28;20357;-74
2023/07/27 08:52:49;;;;;;;5.32;3.85;;;21.40;99.90;;;;;;5042170;28;20198;-74
2023/07/27 08:55:15;;;;;;;6.85;4.38;;;21.20;99.90;;;;;;5045692;28;20181;-75
2023/07/27 08:57:41;;;;;;;5.78;3.47;;;21.10;99.90;;;;;;5047694;28;20215;-75
2023/07/27 09:00:11;;;;;;;4.65;3.50;;;21.40;99.90;;;;;;5044386;28;20216;-74
2023/07/27 09:02:38;;;;;;;5.63;3.33;;;21.60;99.90;;;;;;5048387;28;20641;-75
2023/07/27 09:05:05;;;;;;;4.88;4.22;;;21.50;99.90;;;;;;5041868;28;20207;-75
2023/07/27 09:07:31;;;;;;;3.97;3.35;;;21.60;99.90;;;;;;5049226;28;20183;-74
2023/07/27 09:09:57;;;;;;;5.35;3.45;;;22.00;99.90;;;;;;5045302;28;20222;-75
2023/07/27 09:12:24;;;;;;;7.13;3.25;;;22.40;99.90;;;;;;5048031;28;20288;-74
2023/07/27 09:14:49;;;;;;;6.35;3.95;;;22.20;99.90;;;;;;5049095;28;20760;-74
2023/07/27 09:17:16;;;;;;;5.63;3.80;;;21.70;99.90;;;;;;5048582;28;20302;-74
2023/07/27 09:19:43;;;;;;;5.03;3.80;;;20.90;99.90;;;;;;5050375;28;20634;-74
2023/07/27 09:22:09;;;;;;;6.00;3.83;;;20.80;99.90;;;;;;5044562;28;20251;-74
2023/07/27 09:24:35;;;;;;;5.20;3.88;;;20.60;99.90;;;;;;5048457;28;20223;-74
2023/07/27 09:27:08;;;;;;;6.63;4.68;;;20.70;99.90;;;;;;5040546;28;20216;-75
2023/07/27 09:29:33;;;;;;;5.95;3.70;;;20.80;99.90;;;;;;5058197;28;20224;-75
2023/07/27 09:31:59;;;;;;;5.55;3.53;;;20.80;99.90;;;;;;5043438;28;20265;-74
2023/07/27 09:34:31;;;;;;;5.85;3.85;;;20.60;99.90;;;;;;5043064;28;20230;-75
2023/07/27 09:37:04;;;;;;;6.43;4.90;;;20.50;99.90;;;;;;5041277;28;20204;-73
2023/07/27 09:39:42;;;;;;;4.82;3.35;;;20.80;99.90;;;;;;5043596;28;20612;-74
2023/07/27 09:42:10;;;;;;;7.72;4.50;;;20.30;99.90;;;;;;5058583;28;22259;-74
2023/07/27 09:44:49;;;;;;;3.83;3.22;;;20.20;99.90;;;;;;5045995;28;20682;-73
2023/07/27 09:47:21;;;;;;;5.30;3.17;;;20.30;99.90;;;;;;5047182;28;20212;-75
2023/07/27 09:49:50;;;;;;;6.72;3.88;;;20.60;99.90;;;;;;5048509;28;20212;-75
2023/07/27 09:52:19;;;;;;;4.50;3.70;;;20.80;99.90;;;;;;5048313;28;20275;-75
2023/07/27 09:54:48;;;;;;;5.20;3.40;;;20.90;99.90;;;;;;5047398;28;20253;-74
2023/07/27 09:57:14;;;;;;;7.63;4.00;;;20.90;99.90;;;;;;5047739;28;20285;-76
2023/07/27 09:59:44;;;;;;;5.28;3.35;;;21.10;99.90;;;;;;5044101;28;20277;-75
2023/07/27 10:02:09;;;;;;;4.68;3.75;;;21.00;99.90;;;;;;5036974;28;20273;-75
2023/07/27 10:04:35;;;;;;;3.80;2.97;;;21.20;99.90;;;;;;5058941;28;20810;-74
2023/07/27 10:07:01;;;;;;;6.05;3.60;;;20.90;99.90;;;;;;5044959;28;20298;-74
2023/07/27 10:09:27;;;;;;;4.07;3.67;;;21.10;99.90;;;;;;5041598;28;20223;-74
2023/07/27 10:11:55;;;;;;;4.88;3.25;;;21.50;99.90;;;;;;5041769;28;20204;-73
2023/07/27 10:14:24;;;;;;;7.85;4.68;;;20.90;99.90;;;;;;5042474;28;20205;-74
2023/07/27 10:17:09;;;;;;;5.25;3.22;;;20.80;99.90;;;;;;5045265;28;20267;-74
2023/07/27 10:19:46;;;;;;;4.20;2.88;;;21.00;99.90;;;;;;5046043;28;20167;-74
2023/07/27 10:22:16;;;;;;;4.05;3.25;;;21.30;99.90;;;;;;5053469;28;20290;-74
2023/07/27 10:24:53;;;;;;;5.38;2.80;;;21.00;99.90;;;;;;5047929;28;20215;-74
2023/07/27 10:27:20;;;;;;;3.35;2.78;;;21.10;99.90;;;;;;5048069;28;20756;-74
2023/07/27 10:30:05;;;;;;;9.73;3.72;;;21.20;99.90;;;;;;5048113;28;20227;-73
2023/07/27 10:32:31;;;;;;;5.15;3.17;;;21.50;99.90;;;;;;5045855;28;20483;-74
2023/07/27 10:35:05;;;;;;;4.65;3.15;;;21.50;99.90;;;;;;5042895;28;20234;-74
2023/07/27 10:37:54;;;;;;;6.30;3.22;;;21.90;99.90;;;;;;5045247;28;20200;-74
2023/07/27 10:40:26;;;;;;;4.32;3.10;;;21.80;99.90;;;;;;5037864;28;20300;-74
2023/07/27 10:42:56;;;;;;;5.75;3.17;;;22.20;99.90;;;;;;5042078;28;20219;-73
2023/07/27 10:45:26;;;;;;;5.55;2.67;;;22.00;99.90;;;;;;5041450;28;20204;-74
2023/07/27 10:47:56;;;;;;;5.20;2.92;;;22.00;99.90;;;;;;5042978;28;20210;-74
2023/07/27 10:50:22;;;;;;;3.58;2.60;;;21.90;99.90;;;;;;5043171;28;20224;-74
2023/07/27 10:52:52;;;;;;;3.25;2.63;;;21.90;99.90;;;;;;5046233;28;20719;-74
2023/07/27 10:55:19;;;;;;;5.95;2.90;;;21.60;99.90;;;;;;5044827;28;20737;-74
2023/07/27 10:57:47;;;;;;;4.32;3.28;;;21.50;99.90;;;;;;5043586;28;20578;-74
2023/07/27 11:00:13;;;;;;;5.90;2.63;;;21.50;99.90;;;;;;5040223;28;20211;-75
2023/07/27 11:02:41;;;;;;;4.70;3.28;;;21.80;99.90;;;;;;5058600;28;20219;-75
2023/07/27 11:05:08;;;;;;;5.90;3.30;;;21.90;99.90;;;;;;5045560;28;20929;-72
2023/07/27 11:07:38;;;;;;;8.35;4.00;;;21.80;99.90;;;;;;5048077;28;20176;-74
2023/07/27 11:10:09;;;;;;;5.88;4.35;;;21.90;99.90;;;;;;5046238;28;20298;-73
2023/07/27 11:12:48;;;;;;;6.15;3.20;;;21.70;99.90;;;;;;5044106;28;20292;-74
2023/07/27 11:15:32;;;;;;;3.85;3.10;;;21.90;99.90;;;;;;5036366;28;20215;-74
2023/07/27 11:18:01;;;;;;;2.42;2.22;;;21.80;99.90;;;;;;5043042;28;20199;-74
2023/07/27 11:20:30;;;;;;;6.22;4.15;;;21.70;99.90;;;;;;5046349;28;20207;-73
2023/07/27 11:22:57;;;;;;;4.00;2.97;;;21.90;99.90;;;;;;5043664;28;20661;-74
2023/07/27 11:25:24;;;;;;;5.20;3.55;;;22.00;99.90;;;;;;5040821;28;20306;-74
2023/07/27 11:27:51;;;;;;;6.38;3.08;;;21.60;99.90;;;;;;5043648;28;20203;-74
2023/07/27 11:30:21;;;;;;;4.45;3.30;;;21.60;99.90;;;;;;5044927;28;20588;-74
2023/07/27 11:33:04;;;;;;;4.47;3.38;;;21.80;99.90;;;;;;5047973;28;20235;-74
2023/07/27 11:35:30;;;;;;;6.45;3.60;;;21.80;99.90;;;;;;5043898;28;20639;-74
2023/07/27 11:37:56;;;;;;;5.22;3.60;;;21.60;99.90;;;;;;5048543;28;20175;-74
2023/07/27 11:40:23;;;;;;;5.18;3.67;;;21.60;99.90;;;;;;5049274;28;20245;-74
2023/07/27 11:42:48;;;;;;;6.82;3.13;;;21.80;99.90;;;;;;5050539;28;20359;-74
2023/07/27 11:45:14;;;;;;;8.18;4.03;;;21.90;99.90;;;;;;5051001;28;20208;-74
2023/07/27 11:47:40;;;;;;;6.97;3.65;;;21.90;99.90;;;;;;5051876;28;20213;-74
2023/07/27 11:50:08;;;;;;;6.05;3.60;;;22.00;99.90;;;;;;5050324;28;20633;-72
2023/07/27 11:52:37;;;;;;;7.43;3.90;;;22.10;99.90;;;;;;5057542;28;20180;-74
2023/07/27 11:55:02;;;;;;;5.68;3.38;;;22.10;99.90;;;;;;5043986;28;20223;-74
2023/07/27 11:57:30;;;;;;;18.75;5.45;;;21.90;99.90;;;;;;5057787;28;20238;-74
2023/07/27 12:00:12;;;;;;;6.38;3.60;;;22.10;99.90;;;;;;5047521;28;20518;-75
2023/07/27 12:02:38;;;;;;;7.75;3.67;;;22.10;99.90;;;;;;5050471;28;20576;-74
2023/07/27 12:05:04;;;;;;;4.50;3.22;;;22.30;99.90;;;;;;5044603;28;20187;-74
2023/07/27 12:07:34;;;;;;;9.98;4.22;;;22.10;99.90;;;;;;5051595;28;20183;-75
2023/07/27 12:10:00;;;;;;;7.50;3.60;;;22.20;99.90;;;;;;5048148;28;20277;-75
2023/07/27 12:12:26;;;;;;;8.00;3.67;;;22.20;99.90;;;;;;5047926;28;20195;-75
2023/07/27 12:14:55;;;;;;;5.80;3.35;;;22.00;99.90;;;;;;5048742;28;20200;-75
2023/07/27 12:17:27;;;;;;;6.70;3.67;;;21.90;99.90;;;;;;5049262;28;20264;-74
2023/07/27 12:19:52;;;;;;;4.72;3.20;;;21.90;99.90;;;;;;5048930;28;20175;-74
2023/07/27 12:22:18;;;;;;;8.80;4.53;;;22.10;99.90;;;;;;5050260;28;20240;-75
2023/07/27 12:24:47;;;;;;;4.07;3.60;;;21.90;99.90;;;;;;5051116;28;20247;-75
2023/07/27 12:27:12;;;;;;;5.25;3.88;;;21.80;99.90;;;;;;5041955;28;20484;-74
2023/07/27 12:29:38;;;;;;;7.10;3.72;;;21.90;99.90;;;;;;5041548;28;20694;-74
2023/07/27 12:32:05;;;;;;;7.22;4.60;;;22.00;99.90;;;;;;5043926;28;20202;-75
2023/07/27 12:34:32;;;;;;;4.63;3.67;;;22.10;99.90;;;;;;5043761;28;20179;-75
2023/07/27 12:36:57;;;;;;;3.67;3.28;;;21.90;99.90;;;;;;5050046;28;20211;-75
2023/07/27 12:39:23;;;;;;;4.78;3.47;;;22.00;99.90;;;;;;5049569;28;20210;-74
2023/07/27 12:41:49;;;;;;;7.55;4.63;;;22.00;99.90;;;;;;5046423;28;20421;-75
2023/07/27 12:44:14;;;;;;;5.00;3.50;;;22.30;99.90;;;;;;5047389;28;20215;-75
2023/07/27 12:46:40;;;;;;;4.85;3.85;;;22.20;99.90;;;;;;5048599;28;20203;-75